sensor_id;sensor_type;location;lat;lon;timestamp;P1;durP1;ratioP1;P2;durP2;ratioP2
24401;SDS011;12539;48.808;11.292;2022-12-07T00:01:38;6.40;;;5.25;;
24401;SDS011;12539;48.808;11.292;2022-12-07T00:04:06;7.40;;;6.13;;
24401;SDS011;12539;48.808;11.292;2022-12-07T00:06:36;10.32;;;7.05;;
24401;SDS011;12539;48.808;11.292;2022-12-07T00:09:15;7.25;;;5.95;;
24401;SDS011;12539;48.808;11.292;2022-12-07T00:11:42;6.38;;;5.68;;
24401;SDS011;12539;48.808;11.292;2022-12-07T00:14:12;6.82;;;5.88;;
24401;SDS011;12539;48.808;11.292;2022-12-07T00:16:39;5.93;;;5.22;;
24401;SDS011;12539;48.808;11.292;2022-12-07T00:19:05;8.98;;;7.88;;
24401;SDS011;12539;48.808;11.292;2022-12-07T00:21:32;8.63;;;7.15;;
24401;SDS011;12539;48.808;11.292;2022-12-07T00:23:59;7.60;;;6.38;;
24401;SDS011;12539;48.808;11.292;2022-12-07T00:26:26;6.38;;;5.28;;
24401;SDS011;12539;48.808;11.292;2022-12-07T00:28:56;6.88;;;6.15;;
24401;SDS011;12539;48.808;11.292;2022-12-07T00:31:24;7.75;;;6.32;;
24401;SDS011;12539;48.808;11.292;2022-12-07T00:33:52;7.20;;;6.15;;
24401;SDS011;12539;48.808;11.292;2022-12-07T00:36:19;7.13;;;5.68;;
24401;SDS011;12539;48.808;11.292;2022-12-07T00:38:47;7.15;;;5.50;;
24401;SDS011;12539;48.808;11.292;2022-12-07T00:41:14;8.32;;;6.38;;
24401;SDS011;12539;48.808;11.292;2022-12-07T00:43:41;7.55;;;6.75;;
24401;SDS011;12539;48.808;11.292;2022-12-07T00:46:07;7.47;;;5.90;;
24401;SDS011;12539;48.808;11.292;2022-12-07T00:48:33;8.52;;;7.15;;
24401;SDS011;12539;48.808;11.292;2022-12-07T00:50:59;8.15;;;6.95;;
24401;SDS011;12539;48.808;11.292;2022-12-07T00:53:26;8.55;;;6.38;;
24401;SDS011;12539;48.808;11.292;2022-12-07T00:55:52;8.70;;;5.57;;
24401;SDS011;12539;48.808;11.292;2022-12-07T00:58:18;8.48;;;6.13;;
24401;SDS011;12539;48.808;11.292;2022-12-07T01:00:44;11.02;;;7.50;;
24401;SDS011;12539;48.808;11.292;2022-12-07T01:03:11;8.13;;;6.45;;
24401;SDS011;12539;48.808;11.292;2022-12-07T01:05:37;7.53;;;5.97;;
24401;SDS011;12539;48.808;11.292;2022-12-07T01:08:03;11.35;;;7.40;;
24401;SDS011;12539;48.808;11.292;2022-12-07T01:10:30;8.38;;;6.90;;
24401;SDS011;12539;48.808;11.292;2022-12-07T01:12:56;7.28;;;5.88;;
24401;SDS011;12539;48.808;11.292;2022-12-07T01:15:23;9.35;;;7.28;;
24401;SDS011;12539;48.808;11.292;2022-12-07T01:17:49;9.82;;;7.35;;
24401;SDS011;12539;48.808;11.292;2022-12-07T01:20:15;7.93;;;6.63;;
24401;SDS011;12539;48.808;11.292;2022-12-07T01:22:41;6.95;;;5.13;;
24401;SDS011;12539;48.808;11.292;2022-12-07T01:25:08;9.77;;;7.68;;
24401;SDS011;12539;48.808;11.292;2022-12-07T01:27:35;5.90;;;4.63;;
24401;SDS011;12539;48.808;11.292;2022-12-07T01:30:01;10.30;;;7.88;;
24401;SDS011;12539;48.808;11.292;2022-12-07T01:32:29;8.65;;;7.15;;
24401;SDS011;12539;48.808;11.292;2022-12-07T01:34:55;8.65;;;6.63;;
24401;SDS011;12539;48.808;11.292;2022-12-07T01:37:20;7.82;;;6.38;;
24401;SDS011;12539;48.808;11.292;2022-12-07T01:39:49;8.25;;;6.43;;
24401;SDS011;12539;48.808;11.292;2022-12-07T01:42:16;8.50;;;7.60;;
24401;SDS011;12539;48.808;11.292;2022-12-07T01:47:55;9.50;;;8.05;;
24401;SDS011;12539;48.808;11.292;2022-12-07T01:50:23;9.80;;;7.43;;
24401;SDS011;12539;48.808;11.292;2022-12-07T01:52:51;8.98;;;8.02;;
24401;SDS011;12539;48.808;11.292;2022-12-07T01:55:21;9.40;;;7.68;;
24401;SDS011;12539;48.808;11.292;2022-12-07T01:57:49;9.30;;;7.25;;
24401;SDS011;12539;48.808;11.292;2022-12-07T02:00:17;12.48;;;8.18;;
24401;SDS011;12539;48.808;11.292;2022-12-07T02:02:47;11.68;;;8.48;;
24401;SDS011;12539;48.808;11.292;2022-12-07T02:05:13;12.65;;;7.90;;
24401;SDS011;12539;48.808;11.292;2022-12-07T02:07:40;9.10;;;7.68;;
24401;SDS011;12539;48.808;11.292;2022-12-07T02:10:20;10.00;;;7.70;;
24401;SDS011;12539;48.808;11.292;2022-12-07T02:12:47;8.40;;;6.50;;
24401;SDS011;12539;48.808;11.292;2022-12-07T02:15:18;11.05;;;8.90;;
24401;SDS011;12539;48.808;11.292;2022-12-07T02:17:59;11.60;;;8.23;;
24401;SDS011;12539;48.808;11.292;2022-12-07T02:29:44;10.25;;;8.10;;
24401;SDS011;12539;48.808;11.292;2022-12-07T02:32:20;10.75;;;8.55;;
24401;SDS011;12539;48.808;11.292;2022-12-07T02:37:43;9.68;;;7.03;;
24401;SDS011;12539;48.808;11.292;2022-12-07T02:40:31;10.10;;;7.35;;
24401;SDS011;12539;48.808;11.292;2022-12-07T02:43:08;12.65;;;9.57;;
24401;SDS011;12539;48.808;11.292;2022-12-07T02:45:38;11.05;;;7.07;;
24401;SDS011;12539;48.808;11.292;2022-12-07T02:48:07;10.52;;;7.80;;
24401;SDS011;12539;48.808;11.292;2022-12-07T02:50:35;12.43;;;9.15;;
24401;SDS011;12539;48.808;11.292;2022-12-07T02:53:00;11.10;;;8.27;;
24401;SDS011;12539;48.808;11.292;2022-12-07T02:55:31;9.98;;;7.53;;
24401;SDS011;12539;48.808;11.292;2022-12-07T02:58:14;9.85;;;7.88;;
24401;SDS011;12539;48.808;11.292;2022-12-07T03:04:10;12.77;;;8.60;;
24401;SDS011;12539;48.808;11.292;2022-12-07T03:10:02;7.78;;;6.20;;
24401;SDS011;12539;48.808;11.292;2022-12-07T03:12:51;15.48;;;10.63;;
24401;SDS011;12539;48.808;11.292;2022-12-07T03:15:30;11.95;;;9.38;;
24401;SDS011;12539;48.808;11.292;2022-12-07T03:18:00;8.75;;;6.47;;
24401;SDS011;12539;48.808;11.292;2022-12-07T03:20:28;11.35;;;8.48;;
24401;SDS011;12539;48.808;11.292;2022-12-07T03:22:54;10.40;;;8.02;;
24401;SDS011;12539;48.808;11.292;2022-12-07T03:25:22;14.43;;;10.20;;
24401;SDS011;12539;48.808;11.292;2022-12-07T03:30:23;14.48;;;10.00;;
24401;SDS011;12539;48.808;11.292;2022-12-07T03:33:21;8.48;;;7.00;;
24401;SDS011;12539;48.808;11.292;2022-12-07T03:36:03;12.95;;;10.38;;
24401;SDS011;12539;48.808;11.292;2022-12-07T03:38:37;11.30;;;8.63;;
24401;SDS011;12539;48.808;11.292;2022-12-07T03:41:18;12.07;;;8.32;;
24401;SDS011;12539;48.808;11.292;2022-12-07T03:43:49;11.80;;;8.70;;
24401;SDS011;12539;48.808;11.292;2022-12-07T03:46:36;12.75;;;9.80;;
24401;SDS011;12539;48.808;11.292;2022-12-07T03:49:11;7.55;;;6.32;;
24401;SDS011;12539;48.808;11.292;2022-12-07T03:54:36;15.50;;;10.23;;
24401;SDS011;12539;48.808;11.292;2022-12-07T03:57:08;11.48;;;9.50;;
24401;SDS011;12539;48.808;11.292;2022-12-07T03:59:37;8.85;;;6.75;;
24401;SDS011;12539;48.808;11.292;2022-12-07T04:02:05;10.75;;;8.30;;
24401;SDS011;12539;48.808;11.292;2022-12-07T04:04:32;8.55;;;6.40;;
24401;SDS011;12539;48.808;11.292;2022-12-07T04:06:59;12.38;;;9.35;;
24401;SDS011;12539;48.808;11.292;2022-12-07T04:09:25;8.15;;;6.53;;
24401;SDS011;12539;48.808;11.292;2022-12-07T04:11:51;13.07;;;9.40;;
24401;SDS011;12539;48.808;11.292;2022-12-07T04:14:17;14.88;;;10.02;;
24401;SDS011;12539;48.808;11.292;2022-12-07T04:19:16;13.65;;;9.23;;
24401;SDS011;12539;48.808;11.292;2022-12-07T04:21:43;12.82;;;8.77;;
24401;SDS011;12539;48.808;11.292;2022-12-07T04:24:09;14.82;;;10.25;;
24401;SDS011;12539;48.808;11.292;2022-12-07T04:26:36;18.17;;;13.02;;
24401;SDS011;12539;48.808;11.292;2022-12-07T04:29:02;16.02;;;11.20;;
24401;SDS011;12539;48.808;11.292;2022-12-07T04:31:28;14.40;;;11.13;;
24401;SDS011;12539;48.808;11.292;2022-12-07T04:33:53;10.60;;;8.55;;
24401;SDS011;12539;48.808;11.292;2022-12-07T04:36:19;17.30;;;11.38;;
24401;SDS011;12539;48.808;11.292;2022-12-07T04:38:45;17.23;;;11.07;;
24401;SDS011;12539;48.808;11.292;2022-12-07T04:41:11;15.10;;;10.70;;
24401;SDS011;12539;48.808;11.292;2022-12-07T04:43:37;18.15;;;11.88;;
24401;SDS011;12539;48.808;11.292;2022-12-07T04:46:03;18.52;;;13.13;;
24401;SDS011;12539;48.808;11.292;2022-12-07T04:48:29;14.05;;;10.23;;
24401;SDS011;12539;48.808;11.292;2022-12-07T04:50:55;19.05;;;12.32;;
24401;SDS011;12539;48.808;11.292;2022-12-07T04:53:20;15.50;;;10.70;;
24401;SDS011;12539;48.808;11.292;2022-12-07T04:55:46;9.80;;;7.18;;
24401;SDS011;12539;48.808;11.292;2022-12-07T04:58:12;19.33;;;12.05;;
24401;SDS011;12539;48.808;11.292;2022-12-07T05:00:39;15.00;;;9.35;;
24401;SDS011;12539;48.808;11.292;2022-12-07T05:03:05;22.95;;;14.43;;
24401;SDS011;12539;48.808;11.292;2022-12-07T05:05:30;23.55;;;12.70;;
24401;SDS011;12539;48.808;11.292;2022-12-07T05:07:56;13.55;;;9.38;;
24401;SDS011;12539;48.808;11.292;2022-12-07T05:10:22;21.60;;;13.13;;
24401;SDS011;12539;48.808;11.292;2022-12-07T05:12:47;25.45;;;16.75;;
24401;SDS011;12539;48.808;11.292;2022-12-07T05:15:14;24.70;;;14.18;;
24401;SDS011;12539;48.808;11.292;2022-12-07T05:17:40;19.88;;;12.30;;
24401;SDS011;12539;48.808;11.292;2022-12-07T05:20:06;20.65;;;11.70;;
24401;SDS011;12539;48.808;11.292;2022-12-07T05:22:33;22.23;;;11.82;;
24401;SDS011;12539;48.808;11.292;2022-12-07T05:24:59;23.58;;;13.45;;
24401;SDS011;12539;48.808;11.292;2022-12-07T05:27:25;19.20;;;9.95;;
24401;SDS011;12539;48.808;11.292;2022-12-07T05:29:50;19.13;;;11.43;;
24401;SDS011;12539;48.808;11.292;2022-12-07T05:32:16;23.90;;;13.70;;
24401;SDS011;12539;48.808;11.292;2022-12-07T05:34:42;11.02;;;7.15;;
24401;SDS011;12539;48.808;11.292;2022-12-07T05:37:08;33.97;;;16.75;;
24401;SDS011;12539;48.808;11.292;2022-12-07T05:39:34;26.92;;;16.00;;
24401;SDS011;12539;48.808;11.292;2022-12-07T05:42:00;27.70;;;14.23;;
24401;SDS011;12539;48.808;11.292;2022-12-07T05:44:37;27.92;;;15.68;;
24401;SDS011;12539;48.808;11.292;2022-12-07T05:47:04;52.03;;;19.63;;
24401;SDS011;12539;48.808;11.292;2022-12-07T05:49:29;39.00;;;20.02;;
24401;SDS011;12539;48.808;11.292;2022-12-07T05:51:55;52.08;;;19.85;;
24401;SDS011;12539;48.808;11.292;2022-12-07T05:54:21;54.40;;;20.65;;
24401;SDS011;12539;48.808;11.292;2022-12-07T05:56:47;64.38;;;21.55;;
24401;SDS011;12539;48.808;11.292;2022-12-07T05:59:12;54.45;;;21.30;;
24401;SDS011;12539;48.808;11.292;2022-12-07T06:01:59;46.90;;;21.75;;
24401;SDS011;12539;48.808;11.292;2022-12-07T06:04:31;55.58;;;20.13;;
24401;SDS011;12539;48.808;11.292;2022-12-07T06:06:59;63.38;;;23.17;;
24401;SDS011;12539;48.808;11.292;2022-12-07T06:09:25;49.90;;;19.60;;
24401;SDS011;12539;48.808;11.292;2022-12-07T06:11:52;48.22;;;20.40;;
24401;SDS011;12539;48.808;11.292;2022-12-07T06:14:37;48.22;;;21.40;;
24401;SDS011;12539;48.808;11.292;2022-12-07T06:17:03;45.42;;;17.67;;
24401;SDS011;12539;48.808;11.292;2022-12-07T06:19:29;42.97;;;20.25;;
24401;SDS011;12539;48.808;11.292;2022-12-07T06:21:55;45.92;;;19.65;;
24401;SDS011;12539;48.808;11.292;2022-12-07T06:24:20;42.33;;;18.77;;
24401;SDS011;12539;48.808;11.292;2022-12-07T06:26:46;35.92;;;17.60;;
24401;SDS011;12539;48.808;11.292;2022-12-07T06:29:13;32.95;;;17.45;;
24401;SDS011;12539;48.808;11.292;2022-12-07T06:31:39;46.72;;;16.98;;
24401;SDS011;12539;48.808;11.292;2022-12-07T06:34:09;34.95;;;17.95;;
24401;SDS011;12539;48.808;11.292;2022-12-07T06:36:37;33.63;;;16.45;;
24401;SDS011;12539;48.808;11.292;2022-12-07T06:39:02;31.15;;;15.80;;
24401;SDS011;12539;48.808;11.292;2022-12-07T06:41:29;31.05;;;16.48;;
24401;SDS011;12539;48.808;11.292;2022-12-07T06:43:54;29.70;;;14.73;;
24401;SDS011;12539;48.808;11.292;2022-12-07T06:46:20;27.25;;;13.13;;
24401;SDS011;12539;48.808;11.292;2022-12-07T06:48:46;25.38;;;12.75;;
24401;SDS011;12539;48.808;11.292;2022-12-07T06:51:12;30.85;;;14.00;;
24401;SDS011;12539;48.808;11.292;2022-12-07T06:53:37;34.88;;;16.17;;
24401;SDS011;12539;48.808;11.292;2022-12-07T06:56:03;31.33;;;14.40;;
24401;SDS011;12539;48.808;11.292;2022-12-07T06:58:30;31.10;;;14.98;;
24401;SDS011;12539;48.808;11.292;2022-12-07T07:00:56;32.28;;;15.15;;
24401;SDS011;12539;48.808;11.292;2022-12-07T07:03:22;29.98;;;14.23;;
24401;SDS011;12539;48.808;11.292;2022-12-07T07:05:48;26.65;;;11.93;;
24401;SDS011;12539;48.808;11.292;2022-12-07T07:08:13;23.55;;;12.52;;
24401;SDS011;12539;48.808;11.292;2022-12-07T07:10:39;38.53;;;18.38;;
24401;SDS011;12539;48.808;11.292;2022-12-07T07:13:05;28.23;;;14.95;;
24401;SDS011;12539;48.808;11.292;2022-12-07T07:15:31;35.15;;;16.00;;
24401;SDS011;12539;48.808;11.292;2022-12-07T07:17:58;33.20;;;17.73;;
24401;SDS011;12539;48.808;11.292;2022-12-07T07:20:24;21.92;;;14.23;;
24401;SDS011;12539;48.808;11.292;2022-12-07T07:22:50;23.95;;;11.20;;
24401;SDS011;12539;48.808;11.292;2022-12-07T07:25:18;21.00;;;12.68;;
24401;SDS011;12539;48.808;11.292;2022-12-07T07:27:44;25.48;;;13.13;;
24401;SDS011;12539;48.808;11.292;2022-12-07T07:30:10;22.20;;;13.07;;
24401;SDS011;12539;48.808;11.292;2022-12-07T07:32:36;21.73;;;11.27;;
24401;SDS011;12539;48.808;11.292;2022-12-07T07:35:02;22.05;;;12.48;;
24401;SDS011;12539;48.808;11.292;2022-12-07T07:37:28;18.58;;;11.65;;
24401;SDS011;12539;48.808;11.292;2022-12-07T07:39:54;20.88;;;13.27;;
24401;SDS011;12539;48.808;11.292;2022-12-07T07:42:19;20.05;;;11.90;;
24401;SDS011;12539;48.808;11.292;2022-12-07T07:44:45;18.80;;;11.05;;
24401;SDS011;12539;48.808;11.292;2022-12-07T07:47:10;15.70;;;10.40;;
24401;SDS011;12539;48.808;11.292;2022-12-07T07:49:36;22.88;;;14.45;;
24401;SDS011;12539;48.808;11.292;2022-12-07T07:52:02;14.65;;;10.57;;
24401;SDS011;12539;48.808;11.292;2022-12-07T07:54:28;19.48;;;11.02;;
24401;SDS011;12539;48.808;11.292;2022-12-07T07:56:54;21.38;;;11.43;;
24401;SDS011;12539;48.808;11.292;2022-12-07T07:59:20;13.93;;;8.52;;
24401;SDS011;12539;48.808;11.292;2022-12-07T08:01:45;18.45;;;11.27;;
24401;SDS011;12539;48.808;11.292;2022-12-07T08:04:11;16.05;;;10.93;;
24401;SDS011;12539;48.808;11.292;2022-12-07T08:06:37;12.82;;;8.23;;
24401;SDS011;12539;48.808;11.292;2022-12-07T08:09:02;15.77;;;9.85;;
24401;SDS011;12539;48.808;11.292;2022-12-07T08:11:30;14.57;;;8.95;;
24401;SDS011;12539;48.808;11.292;2022-12-07T08:13:56;13.27;;;9.18;;
24401;SDS011;12539;48.808;11.292;2022-12-07T08:16:22;18.85;;;13.38;;
24401;SDS011;12539;48.808;11.292;2022-12-07T08:18:47;18.50;;;12.43;;
24401;SDS011;12539;48.808;11.292;2022-12-07T08:21:14;13.32;;;10.02;;
24401;SDS011;12539;48.808;11.292;2022-12-07T08:23:40;15.60;;;11.25;;
24401;SDS011;12539;48.808;11.292;2022-12-07T08:26:07;13.75;;;9.85;;
24401;SDS011;12539;48.808;11.292;2022-12-07T08:28:35;10.57;;;6.93;;
24401;SDS011;12539;48.808;11.292;2022-12-07T08:31:01;10.18;;;6.82;;
24401;SDS011;12539;48.808;11.292;2022-12-07T08:33:32;13.35;;;9.02;;
24401;SDS011;12539;48.808;11.292;2022-12-07T08:36:02;18.77;;;12.93;;
24401;SDS011;12539;48.808;11.292;2022-12-07T08:40:58;17.15;;;11.68;;
24401;SDS011;12539;48.808;11.292;2022-12-07T08:43:25;16.65;;;10.40;;
24401;SDS011;12539;48.808;11.292;2022-12-07T08:45:53;14.27;;;9.10;;
24401;SDS011;12539;48.808;11.292;2022-12-07T08:48:31;17.63;;;11.68;;
24401;SDS011;12539;48.808;11.292;2022-12-07T08:51:00;11.95;;;8.55;;
24401;SDS011;12539;48.808;11.292;2022-12-07T08:53:27;12.40;;;8.70;;
24401;SDS011;12539;48.808;11.292;2022-12-07T08:55:54;21.33;;;13.88;;
24401;SDS011;12539;48.808;11.292;2022-12-07T08:58:21;13.55;;;8.88;;
24401;SDS011;12539;48.808;11.292;2022-12-07T09:00:47;13.80;;;9.40;;
24401;SDS011;12539;48.808;11.292;2022-12-07T09:03:13;20.00;;;14.45;;
24401;SDS011;12539;48.808;11.292;2022-12-07T09:05:38;17.65;;;10.48;;
24401;SDS011;12539;48.808;11.292;2022-12-07T09:08:04;15.88;;;10.48;;
24401;SDS011;12539;48.808;11.292;2022-12-07T09:10:31;15.68;;;10.05;;
24401;SDS011;12539;48.808;11.292;2022-12-07T09:12:57;14.85;;;9.38;;
24401;SDS011;12539;48.808;11.292;2022-12-07T09:15:26;14.43;;;9.82;;
24401;SDS011;12539;48.808;11.292;2022-12-07T09:17:53;22.08;;;16.33;;
24401;SDS011;12539;48.808;11.292;2022-12-07T09:20:18;19.88;;;14.40;;
24401;SDS011;12539;48.808;11.292;2022-12-07T09:22:44;20.42;;;13.70;;
24401;SDS011;12539;48.808;11.292;2022-12-07T09:25:10;20.33;;;13.93;;
24401;SDS011;12539;48.808;11.292;2022-12-07T09:27:36;16.40;;;11.57;;
24401;SDS011;12539;48.808;11.292;2022-12-07T09:30:02;15.60;;;11.10;;
24401;SDS011;12539;48.808;11.292;2022-12-07T09:32:29;13.63;;;8.75;;
24401;SDS011;12539;48.808;11.292;2022-12-07T09:34:55;16.90;;;11.02;;
24401;SDS011;12539;48.808;11.292;2022-12-07T09:37:20;15.82;;;10.68;;
24401;SDS011;12539;48.808;11.292;2022-12-07T09:39:46;13.27;;;9.82;;
24401;SDS011;12539;48.808;11.292;2022-12-07T09:42:19;18.48;;;12.35;;
24401;SDS011;12539;48.808;11.292;2022-12-07T09:44:54;17.73;;;11.65;;
24401;SDS011;12539;48.808;11.292;2022-12-07T09:47:20;17.75;;;11.85;;
24401;SDS011;12539;48.808;11.292;2022-12-07T09:49:46;18.67;;;10.60;;
24401;SDS011;12539;48.808;11.292;2022-12-07T09:54:46;17.23;;;12.60;;
24401;SDS011;12539;48.808;11.292;2022-12-07T09:57:14;36.53;;;22.45;;
24401;SDS011;12539;48.808;11.292;2022-12-07T09:59:40;36.83;;;25.15;;
24401;SDS011;12539;48.808;11.292;2022-12-07T10:04:58;11.77;;;8.32;;
24401;SDS011;12539;48.808;11.292;2022-12-07T10:07:25;16.02;;;11.70;;
24401;SDS011;12539;48.808;11.292;2022-12-07T10:09:50;15.25;;;11.27;;
24401;SDS011;12539;48.808;11.292;2022-12-07T10:12:16;9.40;;;6.93;;
24401;SDS011;12539;48.808;11.292;2022-12-07T10:17:40;14.13;;;10.48;;
24401;SDS011;12539;48.808;11.292;2022-12-07T10:20:15;16.20;;;10.70;;
24401;SDS011;12539;48.808;11.292;2022-12-07T10:25:32;14.98;;;10.32;;
24401;SDS011;12539;48.808;11.292;2022-12-07T10:28:01;17.60;;;12.32;;
24401;SDS011;12539;48.808;11.292;2022-12-07T10:30:33;15.65;;;11.02;;
24401;SDS011;12539;48.808;11.292;2022-12-07T10:33:30;19.55;;;13.10;;
24401;SDS011;12539;48.808;11.292;2022-12-07T10:36:01;20.38;;;13.27;;
24401;SDS011;12539;48.808;11.292;2022-12-07T10:38:48;14.40;;;9.95;;
24401;SDS011;12539;48.808;11.292;2022-12-07T10:41:57;13.85;;;9.73;;
24401;SDS011;12539;48.808;11.292;2022-12-07T10:44:26;10.48;;;6.97;;
24401;SDS011;12539;48.808;11.292;2022-12-07T10:49:44;12.95;;;9.05;;
24401;SDS011;12539;48.808;11.292;2022-12-07T10:55:26;11.07;;;7.88;;
24401;SDS011;12539;48.808;11.292;2022-12-07T11:00:56;11.52;;;7.68;;
24401;SDS011;12539;48.808;11.292;2022-12-07T11:20:34;9.52;;;6.82;;
24401;SDS011;12539;48.808;11.292;2022-12-07T11:28:48;8.15;;;6.05;;
24401;SDS011;12539;48.808;11.292;2022-12-07T11:31:25;7.88;;;5.50;;
24401;SDS011;12539;48.808;11.292;2022-12-07T11:36:40;9.75;;;7.10;;
24401;SDS011;12539;48.808;11.292;2022-12-07T11:39:16;9.97;;;6.90;;
24401;SDS011;12539;48.808;11.292;2022-12-07T11:41:57;10.40;;;6.22;;
24401;SDS011;12539;48.808;11.292;2022-12-07T11:53:05;9.55;;;6.18;;
24401;SDS011;12539;48.808;11.292;2022-12-07T12:06:32;8.75;;;6.82;;
24401;SDS011;12539;48.808;11.292;2022-12-07T12:19:57;9.20;;;5.90;;
24401;SDS011;12539;48.808;11.292;2022-12-07T12:22:26;9.13;;;5.68;;
24401;SDS011;12539;48.808;11.292;2022-12-07T12:25:03;8.25;;;5.10;;
24401;SDS011;12539;48.808;11.292;2022-12-07T12:27:34;7.25;;;5.15;;
24401;SDS011;12539;48.808;11.292;2022-12-07T12:30:04;6.88;;;5.20;;
24401;SDS011;12539;48.808;11.292;2022-12-07T12:32:48;7.43;;;5.40;;
24401;SDS011;12539;48.808;11.292;2022-12-07T12:35:30;6.57;;;5.07;;
24401;SDS011;12539;48.808;11.292;2022-12-07T12:40:51;9.10;;;5.53;;
24401;SDS011;12539;48.808;11.292;2022-12-07T12:51:46;7.55;;;5.07;;
24401;SDS011;12539;48.808;11.292;2022-12-07T12:54:22;9.75;;;4.72;;
24401;SDS011;12539;48.808;11.292;2022-12-07T12:59:34;6.47;;;4.63;;
24401;SDS011;12539;48.808;11.292;2022-12-07T13:10:45;6.70;;;4.50;;
24401;SDS011;12539;48.808;11.292;2022-12-07T13:20:58;6.90;;;4.78;;
24401;SDS011;12539;48.808;11.292;2022-12-07T13:28:27;6.72;;;4.93;;
24401;SDS011;12539;48.808;11.292;2022-12-07T13:33:35;6.18;;;4.70;;
24401;SDS011;12539;48.808;11.292;2022-12-07T13:36:01;8.05;;;5.95;;
24401;SDS011;12539;48.808;11.292;2022-12-07T13:38:28;6.55;;;4.50;;
24401;SDS011;12539;48.808;11.292;2022-12-07T13:41:18;7.82;;;5.45;;
24401;SDS011;12539;48.808;11.292;2022-12-07T13:43:48;8.43;;;4.95;;
24401;SDS011;12539;48.808;11.292;2022-12-07T13:46:14;10.10;;;6.10;;
24401;SDS011;12539;48.808;11.292;2022-12-07T13:48:49;9.27;;;5.10;;
24401;SDS011;12539;48.808;11.292;2022-12-07T13:51:20;8.07;;;5.00;;
24401;SDS011;12539;48.808;11.292;2022-12-07T13:53:49;7.70;;;5.40;;
24401;SDS011;12539;48.808;11.292;2022-12-07T13:56:27;6.35;;;4.63;;
24401;SDS011;12539;48.808;11.292;2022-12-07T13:59:05;5.43;;;3.70;;
24401;SDS011;12539;48.808;11.292;2022-12-07T14:01:58;8.18;;;5.65;;
24401;SDS011;12539;48.808;11.292;2022-12-07T14:06:55;6.00;;;4.13;;
24401;SDS011;12539;48.808;11.292;2022-12-07T14:09:22;7.10;;;5.35;;
24401;SDS011;12539;48.808;11.292;2022-12-07T14:11:50;10.35;;;6.07;;
24401;SDS011;12539;48.808;11.292;2022-12-07T14:14:20;6.60;;;4.88;;
24401;SDS011;12539;48.808;11.292;2022-12-07T14:16:56;7.93;;;5.53;;
24401;SDS011;12539;48.808;11.292;2022-12-07T14:19:56;7.63;;;5.75;;
24401;SDS011;12539;48.808;11.292;2022-12-07T14:22:24;5.07;;;4.22;;
24401;SDS011;12539;48.808;11.292;2022-12-07T14:30:16;8.55;;;6.22;;
24401;SDS011;12539;48.808;11.292;2022-12-07T14:32:43;7.45;;;5.20;;
24401;SDS011;12539;48.808;11.292;2022-12-07T14:35:13;7.38;;;5.22;;
24401;SDS011;12539;48.808;11.292;2022-12-07T14:37:43;7.47;;;5.38;;
24401;SDS011;12539;48.808;11.292;2022-12-07T14:40:15;7.45;;;5.28;;
24401;SDS011;12539;48.808;11.292;2022-12-07T14:43:11;9.98;;;7.28;;
24401;SDS011;12539;48.808;11.292;2022-12-07T14:45:39;12.23;;;8.63;;
24401;SDS011;12539;48.808;11.292;2022-12-07T14:48:05;13.02;;;8.18;;
24401;SDS011;12539;48.808;11.292;2022-12-07T14:50:35;10.73;;;7.55;;
24401;SDS011;12539;48.808;11.292;2022-12-07T14:53:15;12.07;;;8.02;;
24401;SDS011;12539;48.808;11.292;2022-12-07T14:55:43;11.57;;;7.47;;
24401;SDS011;12539;48.808;11.292;2022-12-07T14:58:13;14.82;;;9.30;;
24401;SDS011;12539;48.808;11.292;2022-12-07T15:00:39;11.70;;;7.35;;
24401;SDS011;12539;48.808;11.292;2022-12-07T15:03:05;9.90;;;6.07;;
24401;SDS011;12539;48.808;11.292;2022-12-07T15:05:31;10.02;;;6.95;;
24401;SDS011;12539;48.808;11.292;2022-12-07T15:08:03;11.05;;;8.25;;
24401;SDS011;12539;48.808;11.292;2022-12-07T15:10:31;13.20;;;7.47;;
24401;SDS011;12539;48.808;11.292;2022-12-07T15:12:58;11.57;;;7.55;;
24401;SDS011;12539;48.808;11.292;2022-12-07T15:15:46;15.95;;;9.05;;
24401;SDS011;12539;48.808;11.292;2022-12-07T15:18:12;12.25;;;8.02;;
24401;SDS011;12539;48.808;11.292;2022-12-07T15:20:38;11.75;;;7.78;;
24401;SDS011;12539;48.808;11.292;2022-12-07T15:23:04;13.55;;;7.47;;
24401;SDS011;12539;48.808;11.292;2022-12-07T15:25:30;14.70;;;8.55;;
24401;SDS011;12539;48.808;11.292;2022-12-07T15:27:55;13.68;;;7.93;;
24401;SDS011;12539;48.808;11.292;2022-12-07T15:30:21;13.02;;;7.57;;
24401;SDS011;12539;48.808;11.292;2022-12-07T15:32:53;9.00;;;6.93;;
24401;SDS011;12539;48.808;11.292;2022-12-07T15:35:19;10.57;;;7.40;;
24401;SDS011;12539;48.808;11.292;2022-12-07T15:37:46;10.55;;;6.97;;
24401;SDS011;12539;48.808;11.292;2022-12-07T15:40:12;12.48;;;7.90;;
24401;SDS011;12539;48.808;11.292;2022-12-07T15:42:38;11.93;;;6.93;;
24401;SDS011;12539;48.808;11.292;2022-12-07T15:45:04;12.75;;;8.73;;
24401;SDS011;12539;48.808;11.292;2022-12-07T15:47:38;15.05;;;10.55;;
24401;SDS011;12539;48.808;11.292;2022-12-07T15:50:06;15.52;;;11.63;;
24401;SDS011;12539;48.808;11.292;2022-12-07T15:52:35;10.25;;;7.70;;
24401;SDS011;12539;48.808;11.292;2022-12-07T15:55:00;11.45;;;9.10;;
24401;SDS011;12539;48.808;11.292;2022-12-07T15:57:30;9.60;;;6.97;;
24401;SDS011;12539;48.808;11.292;2022-12-07T15:59:57;13.20;;;7.70;;
24401;SDS011;12539;48.808;11.292;2022-12-07T16:02:23;9.98;;;7.32;;
24401;SDS011;12539;48.808;11.292;2022-12-07T16:04:49;11.75;;;7.68;;
24401;SDS011;12539;48.808;11.292;2022-12-07T16:07:15;9.75;;;7.18;;
24401;SDS011;12539;48.808;11.292;2022-12-07T16:09:42;10.07;;;5.95;;
24401;SDS011;12539;48.808;11.292;2022-12-07T16:12:09;10.68;;;7.85;;
24401;SDS011;12539;48.808;11.292;2022-12-07T16:14:35;9.02;;;7.80;;
24401;SDS011;12539;48.808;11.292;2022-12-07T16:17:01;9.02;;;7.25;;
24401;SDS011;12539;48.808;11.292;2022-12-07T16:19:27;10.32;;;6.97;;
24401;SDS011;12539;48.808;11.292;2022-12-07T16:21:53;9.85;;;6.93;;
24401;SDS011;12539;48.808;11.292;2022-12-07T16:24:18;11.38;;;7.93;;
24401;SDS011;12539;48.808;11.292;2022-12-07T16:26:44;10.20;;;7.20;;
24401;SDS011;12539;48.808;11.292;2022-12-07T16:29:11;9.40;;;6.03;;
24401;SDS011;12539;48.808;11.292;2022-12-07T16:31:38;12.05;;;7.05;;
24401;SDS011;12539;48.808;11.292;2022-12-07T16:34:04;9.38;;;6.50;;
24401;SDS011;12539;48.808;11.292;2022-12-07T16:36:29;12.80;;;7.90;;
24401;SDS011;12539;48.808;11.292;2022-12-07T16:38:55;9.95;;;7.00;;
24401;SDS011;12539;48.808;11.292;2022-12-07T16:41:23;9.95;;;6.88;;
24401;SDS011;12539;48.808;11.292;2022-12-07T16:43:50;10.10;;;7.55;;
24401;SDS011;12539;48.808;11.292;2022-12-07T16:46:16;10.18;;;6.95;;
24401;SDS011;12539;48.808;11.292;2022-12-07T16:48:43;10.38;;;7.75;;
24401;SDS011;12539;48.808;11.292;2022-12-07T16:51:09;27.50;;;16.17;;
24401;SDS011;12539;48.808;11.292;2022-12-07T16:53:37;11.65;;;7.63;;
24401;SDS011;12539;48.808;11.292;2022-12-07T16:56:09;9.90;;;7.47;;
24401;SDS011;12539;48.808;11.292;2022-12-07T16:58:39;11.43;;;8.07;;
24401;SDS011;12539;48.808;11.292;2022-12-07T17:01:13;12.23;;;9.10;;
24401;SDS011;12539;48.808;11.292;2022-12-07T17:03:41;11.07;;;8.35;;
24401;SDS011;12539;48.808;11.292;2022-12-07T17:06:18;12.35;;;7.95;;